sensor_id;sensor_type;location;lat;lon;timestamp;pressure;altitude;pressure_sealevel;temperature;humidity
14089;BME280;7120;52.890;6.040;2023-01-27T00:01:50;102578.00;;;5.49;85.66
14089;BME280;7120;52.890;6.040;2023-01-27T00:04:16;102587.59;;;5.51;85.64
14089;BME280;7120;52.890;6.040;2023-01-27T00:06:41;102588.56;;;5.39;86.32
14089;BME280;7120;52.890;6.040;2023-01-27T00:09:06;102595.78;;;5.27;86.99
14089;BME280;7120;52.890;6.040;2023-01-27T00:11:32;102596.19;;;5.30;86.56
14089;BME280;7120;52.890;6.040;2023-01-27T00:14:15;102593.75;;;5.22;86.45
14089;BME280;7120;52.890;6.040;2023-01-27T00:16:41;102596.84;;;5.26;86.13
14089;BME280;7120;52.890;6.040;2023-01-27T00:19:06;102581.44;;;5.19;86.64
14089;BME280;7120;52.890;6.040;2023-01-27T00:21:31;102578.47;;;5.03;86.76
14089;BME280;7120;52.890;6.040;2023-01-27T00:24:15;102596.63;;;5.02;86.73
14089;BME280;7120;52.890;6.040;2023-01-27T00:26:59;102594.84;;;5.14;86.96
14089;BME280;7120;52.890;6.040;2023-01-27T00:29:25;102595.81;;;5.02;86.84
14089;BME280;7120;52.890;6.040;2023-01-27T00:31:50;102599.72;;;5.06;86.97
14089;BME280;7120;52.890;6.040;2023-01-27T00:34:34;102585.56;;;5.04;87.20
14089;BME280;7120;52.890;6.040;2023-01-27T00:36:59;102582.19;;;5.08;86.80
14089;BME280;7120;52.890;6.040;2023-01-27T00:39:24;102600.34;;;5.08;86.60
14089;BME280;7120;52.890;6.040;2023-01-27T00:41:50;102600.78;;;5.05;86.87
14089;BME280;7120;52.890;6.040;2023-01-27T00:44:15;102604.50;;;5.10;86.41
14089;BME280;7120;52.890;6.040;2023-01-27T00:46:41;102604.38;;;5.23;86.20
14089;BME280;7120;52.890;6.040;2023-01-27T00:49:08;102601.66;;;5.23;85.71
14089;BME280;7120;52.890;6.040;2023-01-27T00:51:34;102610.56;;;5.31;86.53
14089;BME280;7120;52.890;6.040;2023-01-27T00:54:00;102603.59;;;5.16;86.07
14089;BME280;7120;52.890;6.040;2023-01-27T00:56:27;102604.59;;;5.22;86.21
14089;BME280;7120;52.890;6.040;2023-01-27T00:58:52;102604.25;;;5.12;86.98
14089;BME280;7120;52.890;6.040;2023-01-27T01:01:18;102619.69;;;5.11;86.90
14089;BME280;7120;52.890;6.040;2023-01-27T01:03:43;102615.59;;;5.27;87.02
14089;BME280;7120;52.890;6.040;2023-01-27T01:06:15;102617.00;;;5.11;87.41
14089;BME280;7120;52.890;6.040;2023-01-27T01:08:41;102620.09;;;5.15;87.69
14089;BME280;7120;52.890;6.040;2023-01-27T01:11:08;102619.19;;;5.21;87.17
14089;BME280;7120;52.890;6.040;2023-01-27T01:13:35;102621.34;;;5.12;87.55
14089;BME280;7120;52.890;6.040;2023-01-27T01:16:21;102620.75;;;5.10;87.47
14089;BME280;7120;52.890;6.040;2023-01-27T01:18:47;102613.41;;;5.17;87.24
14089;BME280;7120;52.890;6.040;2023-01-27T01:21:13;102640.94;;;5.14;87.42
14089;BME280;7120;52.890;6.040;2023-01-27T01:23:42;102636.16;;;5.16;87.91
14089;BME280;7120;52.890;6.040;2023-01-27T01:26:10;102632.59;;;5.16;87.71
14089;BME280;7120;52.890;6.040;2023-01-27T01:28:36;102643.50;;;5.09;87.57
14089;BME280;7120;52.890;6.040;2023-01-27T01:31:06;102645.75;;;5.12;88.23
14089;BME280;7120;52.890;6.040;2023-01-27T01:33:32;102649.19;;;5.26;87.21
14089;BME280;7120;52.890;6.040;2023-01-27T01:36:11;102652.78;;;4.95;87.00
14089;BME280;7120;52.890;6.040;2023-01-27T01:38:37;102668.91;;;5.15;86.42
14089;BME280;7120;52.890;6.040;2023-01-27T01:41:04;102644.72;;;5.13;86.00
14089;BME280;7120;52.890;6.040;2023-01-27T01:43:29;102651.47;;;5.04;84.79
14089;BME280;7120;52.890;6.040;2023-01-27T01:46:04;102656.88;;;5.04;83.79
14089;BME280;7120;52.890;6.040;2023-01-27T01:48:51;102665.31;;;5.21;83.72
14089;BME280;7120;52.890;6.040;2023-01-27T01:51:39;102655.97;;;5.17;82.44
14089;BME280;7120;52.890;6.040;2023-01-27T01:54:22;102666.34;;;5.20;83.22
14089;BME280;7120;52.890;6.040;2023-01-27T01:59:35;102654.31;;;5.16;83.10
14089;BME280;7120;52.890;6.040;2023-01-27T02:02:06;102644.56;;;5.08;82.87
14089;BME280;7120;52.890;6.040;2023-01-27T02:04:39;102653.78;;;5.26;83.14
14089;BME280;7120;52.890;6.040;2023-01-27T02:07:10;102647.78;;;5.23;82.71
14089;BME280;7120;52.890;6.040;2023-01-27T02:09:39;102642.56;;;4.97;82.96
14089;BME280;7120;52.890;6.040;2023-01-27T02:12:05;102658.84;;;5.22;83.42
14089;BME280;7120;52.890;6.040;2023-01-27T02:14:30;102648.66;;;5.17;83.26
14089;BME280;7120;52.890;6.040;2023-01-27T02:16:56;102648.19;;;5.20;83.05
14089;BME280;7120;52.890;6.040;2023-01-27T02:22:23;102632.38;;;5.17;82.02
14089;BME280;7120;52.890;6.040;2023-01-27T02:24:52;102661.63;;;5.15;81.17
14089;BME280;7120;52.890;6.040;2023-01-27T02:27:20;102665.88;;;5.30;81.02
14089;BME280;7120;52.890;6.040;2023-01-27T02:29:46;102660.38;;;5.11;81.47
14089;BME280;7120;52.890;6.040;2023-01-27T02:32:24;102660.59;;;5.10;81.31
14089;BME280;7120;52.890;6.040;2023-01-27T02:34:51;102657.72;;;5.05;81.03
14089;BME280;7120;52.890;6.040;2023-01-27T02:37:18;102659.88;;;5.21;80.77
14089;BME280;7120;52.890;6.040;2023-01-27T02:39:44;102660.56;;;5.16;81.05
14089;BME280;7120;52.890;6.040;2023-01-27T02:42:13;102655.38;;;5.15;80.72
14089;BME280;7120;52.890;6.040;2023-01-27T02:44:38;102650.66;;;5.29;80.19
14089;BME280;7120;52.890;6.040;2023-01-27T02:47:04;102645.88;;;5.24;79.65
14089;BME280;7120;52.890;6.040;2023-01-27T02:49:29;102661.94;;;5.26;79.63
14089;BME280;7120;52.890;6.040;2023-01-27T02:51:54;102656.78;;;5.17;79.88
14089;BME280;7120;52.890;6.040;2023-01-27T02:54:20;102653.63;;;5.20;79.03
14089;BME280;7120;52.890;6.040;2023-01-27T02:56:46;102656.50;;;5.26;78.59
14089;BME280;7120;52.890;6.040;2023-01-27T02:59:11;102663.09;;;5.36;78.46
14089;BME280;7120;52.890;6.040;2023-01-27T03:01:36;102668.13;;;5.33;78.08
14089;BME280;7120;52.890;6.040;2023-01-27T03:04:02;102667.19;;;5.20;77.54
14089;BME280;7120;52.890;6.040;2023-01-27T03:06:27;102666.72;;;5.30;78.01
14089;BME280;7120;52.890;6.040;2023-01-27T03:08:53;102671.72;;;5.27;77.08
14089;BME280;7120;52.890;6.040;2023-01-27T03:11:18;102675.28;;;5.27;77.73
14089;BME280;7120;52.890;6.040;2023-01-27T03:14:05;102680.09;;;5.25;77.68
14089;BME280;7120;52.890;6.040;2023-01-27T03:16:30;102668.69;;;5.16;77.92
14089;BME280;7120;52.890;6.040;2023-01-27T03:19:14;102675.38;;;5.14;77.55
14089;BME280;7120;52.890;6.040;2023-01-27T03:21:39;102681.19;;;5.17;77.93
14089;BME280;7120;52.890;6.040;2023-01-27T03:24:05;102690.28;;;5.30;77.77
14089;BME280;7120;52.890;6.040;2023-01-27T03:26:30;102688.00;;;5.27;77.22
14089;BME280;7120;52.890;6.040;2023-01-27T03:28:56;102697.38;;;5.31;77.51
14089;BME280;7120;52.890;6.040;2023-01-27T03:31:39;102690.72;;;5.27;77.02
14089;BME280;7120;52.890;6.040;2023-01-27T03:34:05;102695.53;;;5.24;76.63
14089;BME280;7120;52.890;6.040;2023-01-27T03:36:30;102681.25;;;5.11;76.62
14089;BME280;7120;52.890;6.040;2023-01-27T03:39:14;102696.03;;;5.15;76.07
14089;BME280;7120;52.890;6.040;2023-01-27T03:41:58;102693.63;;;5.00;75.66
14089;BME280;7120;52.890;6.040;2023-01-27T03:44:42;102710.44;;;5.15;75.41
14089;BME280;7120;52.890;6.040;2023-01-27T03:47:26;102709.38;;;5.16;75.17
14089;BME280;7120;52.890;6.040;2023-01-27T03:49:51;102708.09;;;5.19;75.44
14089;BME280;7120;52.890;6.040;2023-01-27T03:52:16;102711.59;;;5.26;74.87
14089;BME280;7120;52.890;6.040;2023-01-27T03:54:42;102693.94;;;5.17;75.57
14089;BME280;7120;52.890;6.040;2023-01-27T03:57:07;102710.94;;;5.31;75.86
14089;BME280;7120;52.890;6.040;2023-01-27T03:59:32;102715.59;;;5.23;76.48
14089;BME280;7120;52.890;6.040;2023-01-27T04:02:00;102717.75;;;5.15;77.63
14089;BME280;7120;52.890;6.040;2023-01-27T04:04:44;102712.03;;;5.23;77.22
14089;BME280;7120;52.890;6.040;2023-01-27T04:07:28;102723.63;;;5.05;78.41
14089;BME280;7120;52.890;6.040;2023-01-27T04:09:54;102708.44;;;4.97;77.87
14089;BME280;7120;52.890;6.040;2023-01-27T04:12:19;102702.84;;;4.92;77.21
14089;BME280;7120;52.890;6.040;2023-01-27T04:14:44;102703.91;;;4.91;76.61
14089;BME280;7120;52.890;6.040;2023-01-27T04:17:12;102718.50;;;4.90;76.07
14089;BME280;7120;52.890;6.040;2023-01-27T04:19:38;102709.16;;;4.86;74.77
14089;BME280;7120;52.890;6.040;2023-01-27T04:22:04;102707.28;;;4.87;75.37
14089;BME280;7120;52.890;6.040;2023-01-27T04:24:30;102725.84;;;4.83;75.08
14089;BME280;7120;52.890;6.040;2023-01-27T04:29:24;102720.06;;;4.73;74.56
14089;BME280;7120;52.890;6.040;2023-01-27T04:31:50;102711.56;;;4.63;74.48
14089;BME280;7120;52.890;6.040;2023-01-27T04:34:18;102711.13;;;4.73;73.84
14089;BME280;7120;52.890;6.040;2023-01-27T04:36:44;102718.63;;;4.71;74.15
14089;BME280;7120;52.890;6.040;2023-01-27T04:39:10;102720.63;;;4.88;74.16
14089;BME280;7120;52.890;6.040;2023-01-27T04:41:36;102728.56;;;4.83;74.00
14089;BME280;7120;52.890;6.040;2023-01-27T04:44:02;102726.28;;;4.80;74.74
14089;BME280;7120;52.890;6.040;2023-01-27T04:46:28;102720.06;;;4.73;74.96
14089;BME280;7120;52.890;6.040;2023-01-27T04:48:54;102719.81;;;4.81;75.10
14089;BME280;7120;52.890;6.040;2023-01-27T04:51:19;102720.72;;;5.00;75.26
14089;BME280;7120;52.890;6.040;2023-01-27T04:53:44;102705.13;;;4.95;75.23
14089;BME280;7120;52.890;6.040;2023-01-27T04:56:32;102718.63;;;5.09;75.99
14089;BME280;7120;52.890;6.040;2023-01-27T04:58:59;102712.84;;;4.92;75.91
14089;BME280;7120;52.890;6.040;2023-01-27T05:01:25;102713.59;;;4.74;77.06
14089;BME280;7120;52.890;6.040;2023-01-27T05:03:51;102713.63;;;4.67;77.00
14089;BME280;7120;52.890;6.040;2023-01-27T05:06:16;102716.38;;;4.61;76.85
14089;BME280;7120;52.890;6.040;2023-01-27T05:08:42;102720.50;;;4.70;77.27
14089;BME280;7120;52.890;6.040;2023-01-27T05:11:08;102726.09;;;4.75;76.80
14089;BME280;7120;52.890;6.040;2023-01-27T05:13:33;102719.66;;;4.69;77.73
14089;BME280;7120;52.890;6.040;2023-01-27T05:16:14;102731.81;;;4.60;77.19
14089;BME280;7120;52.890;6.040;2023-01-27T05:18:41;102739.97;;;4.54;77.10
14089;BME280;7120;52.890;6.040;2023-01-27T05:21:07;102740.84;;;4.41;76.73
14089;BME280;7120;52.890;6.040;2023-01-27T05:23:35;102740.44;;;4.44;76.25
14089;BME280;7120;52.890;6.040;2023-01-27T05:26:19;102741.25;;;4.51;75.55
14089;BME280;7120;52.890;6.040;2023-01-27T05:28:45;102749.28;;;4.64;75.95
14089;BME280;7120;52.890;6.040;2023-01-27T05:31:19;102757.84;;;4.61;74.86
14089;BME280;7120;52.890;6.040;2023-01-27T05:33:47;102762.03;;;4.57;75.05
14089;BME280;7120;52.890;6.040;2023-01-27T05:36:14;102754.16;;;4.43;75.42
14089;BME280;7120;52.890;6.040;2023-01-27T05:38:41;102754.38;;;4.41;74.38
14089;BME280;7120;52.890;6.040;2023-01-27T05:41:07;102761.63;;;4.60;74.94
14089;BME280;7120;52.890;6.040;2023-01-27T05:43:35;102752.91;;;4.52;74.74
14089;BME280;7120;52.890;6.040;2023-01-27T05:46:11;102767.66;;;4.56;74.68
14089;BME280;7120;52.890;6.040;2023-01-27T05:48:43;102763.06;;;4.56;74.59
14089;BME280;7120;52.890;6.040;2023-01-27T05:51:09;102749.28;;;4.64;74.71
14089;BME280;7120;52.890;6.040;2023-01-27T05:53:35;102756.03;;;4.49;74.94
14089;BME280;7120;52.890;6.040;2023-01-27T05:56:01;102769.78;;;4.47;74.93
14089;BME280;7120;52.890;6.040;2023-01-27T05:58:26;102771.47;;;4.41;74.95
14089;BME280;7120;52.890;6.040;2023-01-27T06:00:52;102760.41;;;4.43;75.41
14089;BME280;7120;52.890;6.040;2023-01-27T06:03:18;102767.31;;;4.46;74.71
14089;BME280;7120;52.890;6.040;2023-01-27T06:05:52;102764.13;;;4.55;74.46
14089;BME280;7120;52.890;6.040;2023-01-27T06:08:17;102760.38;;;4.56;74.35
14089;BME280;7120;52.890;6.040;2023-01-27T06:10:43;102750.63;;;4.42;74.78
14089;BME280;7120;52.890;6.040;2023-01-27T06:13:08;102764.59;;;4.46;74.46
14089;BME280;7120;52.890;6.040;2023-01-27T06:15:34;102763.31;;;4.48;75.30
14089;BME280;7120;52.890;6.040;2023-01-27T06:17:59;102749.81;;;4.35;75.30
14089;BME280;7120;52.890;6.040;2023-01-27T06:20:25;102752.06;;;4.51;74.58
14089;BME280;7120;52.890;6.040;2023-01-27T06:22:50;102763.66;;;4.65;74.34
14089;BME280;7120;52.890;6.040;2023-01-27T06:25:16;102766.38;;;4.65;74.36
14089;BME280;7120;52.890;6.040;2023-01-27T06:27:41;102760.31;;;4.69;74.67
14089;BME280;7120;52.890;6.040;2023-01-27T06:30:07;102749.97;;;4.53;75.29
14089;BME280;7120;52.890;6.040;2023-01-27T06:32:35;102754.50;;;4.66;75.36
14089;BME280;7120;52.890;6.040;2023-01-27T06:35:00;102750.88;;;4.79;74.33
14089;BME280;7120;52.890;6.040;2023-01-27T06:37:28;102756.53;;;4.77;75.34
14089;BME280;7120;52.890;6.040;2023-01-27T06:39:53;102772.13;;;4.88;74.65
14089;BME280;7120;52.890;6.040;2023-01-27T06:42:19;102761.53;;;4.80;75.08
14089;BME280;7120;52.890;6.040;2023-01-27T06:44:44;102770.06;;;4.84;74.39
14089;BME280;7120;52.890;6.040;2023-01-27T06:47:09;102774.22;;;4.86;74.59
14089;BME280;7120;52.890;6.040;2023-01-27T06:49:35;102780.06;;;4.83;74.99
14089;BME280;7120;52.890;6.040;2023-01-27T06:52:00;102779.22;;;4.83;75.07
14089;BME280;7120;52.890;6.040;2023-01-27T06:54:25;102780.25;;;4.88;74.78
14089;BME280;7120;52.890;6.040;2023-01-27T06:56:51;102782.44;;;4.66;75.56
14089;BME280;7120;52.890;6.040;2023-01-27T06:59:16;102768.53;;;4.50;75.93
14089;BME280;7120;52.890;6.040;2023-01-27T07:01:41;102780.97;;;4.64;76.12
14089;BME280;7120;52.890;6.040;2023-01-27T07:04:07;102790.88;;;4.38;76.89
14089;BME280;7120;52.890;6.040;2023-01-27T07:06:32;102798.06;;;4.58;76.87
14089;BME280;7120;52.890;6.040;2023-01-27T07:08:57;102796.00;;;4.60;77.08
14089;BME280;7120;52.890;6.040;2023-01-27T07:11:23;102799.59;;;4.47;76.63
14089;BME280;7120;52.890;6.040;2023-01-27T07:13:49;102800.41;;;4.48;76.65
14089;BME280;7120;52.890;6.040;2023-01-27T07:16:14;102807.72;;;4.47;77.34
14089;BME280;7120;52.890;6.040;2023-01-27T07:18:40;102814.94;;;4.73;76.63
14089;BME280;7120;52.890;6.040;2023-01-27T07:21:05;102811.16;;;4.81;76.55
14089;BME280;7120;52.890;6.040;2023-01-27T07:23:31;102816.59;;;4.74;75.92
14089;BME280;7120;52.890;6.040;2023-01-27T07:25:56;102794.34;;;4.65;76.80
14089;BME280;7120;52.890;6.040;2023-01-27T07:28:22;102808.72;;;4.66;76.46
14089;BME280;7120;52.890;6.040;2023-01-27T07:30:47;102814.72;;;4.75;76.58
14089;BME280;7120;52.890;6.040;2023-01-27T07:33:13;102818.88;;;4.71;76.32
14089;BME280;7120;52.890;6.040;2023-01-27T07:35:39;102825.06;;;4.91;75.70
14089;BME280;7120;52.890;6.040;2023-01-27T07:38:07;102822.38;;;4.84;76.82
14089;BME280;7120;52.890;6.040;2023-01-27T07:40:34;102826.31;;;4.95;75.79
14089;BME280;7120;52.890;6.040;2023-01-27T07:43:00;102823.28;;;4.65;76.24
14089;BME280;7120;52.890;6.040;2023-01-27T07:45:27;102824.25;;;4.84;76.34
14089;BME280;7120;52.890;6.040;2023-01-27T07:47:53;102819.31;;;4.67;76.04
14089;BME280;7120;52.890;6.040;2023-01-27T07:50:19;102825.53;;;4.81;76.37
14089;BME280;7120;52.890;6.040;2023-01-27T07:52:45;102815.78;;;4.67;76.49
14089;BME280;7120;52.890;6.040;2023-01-27T07:55:11;102807.22;;;4.70;76.69
14089;BME280;7120;52.890;6.040;2023-01-27T07:57:36;102829.34;;;4.67;77.37
14089;BME280;7120;52.890;6.040;2023-01-27T08:00:03;102817.44;;;4.68;76.56
14089;BME280;7120;52.890;6.040;2023-01-27T08:02:29;102833.69;;;4.75;75.97
14089;BME280;7120;52.890;6.040;2023-01-27T08:04:55;102845.78;;;4.72;77.16
14089;BME280;7120;52.890;6.040;2023-01-27T08:07:21;102842.06;;;4.60;77.21
14089;BME280;7120;52.890;6.040;2023-01-27T08:09:47;102841.41;;;4.64;77.67
14089;BME280;7120;52.890;6.040;2023-01-27T08:12:12;102856.47;;;4.60;77.42
14089;BME280;7120;52.890;6.040;2023-01-27T08:14:38;102854.94;;;4.71;77.65
14089;BME280;7120;52.890;6.040;2023-01-27T08:17:03;102856.19;;;4.75;76.57
14089;BME280;7120;52.890;6.040;2023-01-27T08:19:29;102864.91;;;4.90;77.11
14089;BME280;7120;52.890;6.040;2023-01-27T08:21:54;102858.31;;;4.73;77.07
14089;BME280;7120;52.890;6.040;2023-01-27T08:24:19;102851.97;;;4.86;76.51
14089;BME280;7120;52.890;6.040;2023-01-27T08:26:45;102850.59;;;4.63;78.40
14089;BME280;7120;52.890;6.040;2023-01-27T08:29:10;102844.91;;;4.85;77.01
14089;BME280;7120;52.890;6.040;2023-01-27T08:31:36;102841.56;;;4.89;77.34
14089;BME280;7120;52.890;6.040;2023-01-27T08:34:01;102854.69;;;4.86;77.25
14089;BME280;7120;52.890;6.040;2023-01-27T08:36:26;102847.19;;;4.88;77.12
14089;BME280;7120;52.890;6.040;2023-01-27T08:38:52;102848.25;;;4.87;77.29
14089;BME280;7120;52.890;6.040;2023-01-27T08:41:23;102855.38;;;4.75;78.76
14089;BME280;7120;52.890;6.040;2023-01-27T08:43:49;102848.47;;;4.72;78.32
14089;BME280;7120;52.890;6.040;2023-01-27T08:46:15;102849.22;;;4.99;77.95
14089;BME280;7120;52.890;6.040;2023-01-27T08:48:41;102847.13;;;5.08;77.66
14089;BME280;7120;52.890;6.040;2023-01-27T08:51:07;102851.03;;;5.12;76.73
14089;BME280;7120;52.890;6.040;2023-01-27T08:53:33;102858.03;;;4.88;77.89
14089;BME280;7120;52.890;6.040;2023-01-27T08:56:03;102859.63;;;5.09;78.22
14089;BME280;7120;52.890;6.040;2023-01-27T08:58:29;102869.44;;;5.03;78.21
14089;BME280;7120;52.890;6.040;2023-01-27T09:00:54;102862.13;;;5.10;77.92
14089;BME280;7120;52.890;6.040;2023-01-27T09:03:23;102860.44;;;5.16;77.92
14089;BME280;7120;52.890;6.040;2023-01-27T09:05:49;102873.13;;;5.22;77.74
14089;BME280;7120;52.890;6.040;2023-01-27T09:08:15;102864.78;;;5.23;77.49
14089;BME280;7120;52.890;6.040;2023-01-27T09:10:40;102865.44;;;5.12;77.42
14089;BME280;7120;52.890;6.040;2023-01-27T09:13:07;102876.47;;;5.17;nan
14089;BME280;7120;52.890;6.040;2023-01-27T09:15:34;102874.34;;;5.26;77.85
14089;BME280;7120;52.890;6.040;2023-01-27T09:18:00;102881.84;;;5.31;78.12
14089;BME280;7120;52.890;6.040;2023-01-27T09:20:26;102868.94;;;5.19;77.70
14089;BME280;7120;52.890;6.040;2023-01-27T09:22:53;102882.09;;;5.22;78.16
14089;BME280;7120;52.890;6.040;2023-01-27T09:25:20;102891.59;;;5.38;78.51
14089;BME280;7120;52.890;6.040;2023-01-27T09:27:45;102882.44;;;5.33;78.12
14089;BME280;7120;52.890;6.040;2023-01-27T09:30:12;102903.16;;;5.20;79.20
14089;BME280;7120;52.890;6.040;2023-01-27T09:32:39;102896.63;;;5.35;79.52
14089;BME280;7120;52.890;6.040;2023-01-27T09:35:05;102897.59;;;5.47;78.90
14089;BME280;7120;52.890;6.040;2023-01-27T09:37:33;102902.44;;;5.45;79.84
14089;BME280;7120;52.890;6.040;2023-01-27T09:40:02;102906.88;;;5.33;80.05
14089;BME280;7120;52.890;6.040;2023-01-27T09:45:34;102897.13;;;5.57;79.69
14089;BME280;7120;52.890;6.040;2023-01-27T09:50:50;102905.28;;;5.57;80.12
14089;BME280;7120;52.890;6.040;2023-01-27T09:56:05;102907.88;;;5.76;79.54
14089;BME280;7120;52.890;6.040;2023-01-27T09:59:21;102908.78;;;5.64;79.86
14089;BME280;7120;52.890;6.040;2023-01-27T10:10:20;102904.44;;;5.56;81.10
14089;BME280;7120;52.890;6.040;2023-01-27T10:13:12;102901.56;;;5.51;81.32
14089;BME280;7120;52.890;6.040;2023-01-27T10:15:48;102901.56;;;5.51;81.24
14089;BME280;7120;52.890;6.040;2023-01-27T10:19:21;102914.19;;;5.64;79.96
14089;BME280;7120;52.890;6.040;2023-01-27T10:27:16;102917.97;;;6.01;79.35
14089;BME280;7120;52.890;6.040;2023-01-27T10:29:51;102906.94;;;5.89;79.08
14089;BME280;7120;52.890;6.040;2023-01-27T10:32:27;102914.13;;;5.77;78.91
14089;BME280;7120;52.890;6.040;2023-01-27T10:35:01;102916.69;;;5.72;78.84
14089;BME280;7120;52.890;6.040;2023-01-27T10:40:39;102908.59;;;5.90;79.93
14089;BME280;7120;52.890;6.040;2023-01-27T10:43:17;102913.06;;;6.16;78.27
14089;BME280;7120;52.890;6.040;2023-01-27T10:45:59;102901.13;;;5.92;77.31
14089;BME280;7120;52.890;6.040;2023-01-27T10:48:47;102897.47;;;5.73;78.95
14089;BME280;7120;52.890;6.040;2023-01-27T10:51:24;102898.66;;;5.77;78.10
14089;BME280;7120;52.890;6.040;2023-01-27T10:56:32;102907.06;;;6.08;76.10
14089;BME280;7120;52.890;6.040;2023-01-27T10:59:10;102896.97;;;6.15;74.82
14089;BME280;7120;52.890;6.040;2023-01-27T11:01:43;102897.56;;;5.92;75.06
14089;BME280;7120;52.890;6.040;2023-01-27T11:04:20;102901.44;;;6.02;75.44
14089;BME280;7120;52.890;6.040;2023-01-27T11:06:50;102898.34;;;5.99;75.30
14089;BME280;7120;52.890;6.040;2023-01-27T11:09:28;102898.13;;;6.25;75.10
14089;BME280;7120;52.890;6.040;2023-01-27T11:11:59;102895.47;;;6.19;74.65
14089;BME280;7120;52.890;6.040;2023-01-27T11:14:37;102899.06;;;6.13;75.26
14089;BME280;7120;52.890;6.040;2023-01-27T11:17:31;102896.06;;;5.96;76.00
14089;BME280;7120;52.890;6.040;2023-01-27T11:22:59;102893.34;;;5.96;76.83
14089;BME280;7120;52.890;6.040;2023-01-27T11:31:02;102888.59;;;5.85;76.91
14089;BME280;7120;52.890;6.040;2023-01-27T11:36:19;102892.03;;;5.73;76.35
14089;BME280;7120;52.890;6.040;2023-01-27T11:38:45;102888.44;;;5.79;75.93
14089;BME280;7120;52.890;6.040;2023-01-27T11:41:10;102884.16;;;5.90;75.20
14089;BME280;7120;52.890;6.040;2023-01-27T11:43:36;102895.84;;;5.97;76.93
14089;BME280;7120;52.890;6.040;2023-01-27T11:46:05;102893.75;;;5.99;75.24
14089;BME280;7120;52.890;6.040;2023-01-27T11:48:43;102880.97;;;6.07;74.06
14089;BME280;7120;52.890;6.040;2023-01-27T11:51:34;102883.97;;;5.92;75.31
14089;BME280;7120;52.890;6.040;2023-01-27T11:54:25;102881.16;;;6.05;74.46
14089;BME280;7120;52.890;6.040;2023-01-27T11:56:52;102876.06;;;6.15;73.99
14089;BME280;7120;52.890;6.040;2023-01-27T11:59:36;102878.78;;;6.15;73.74
14089;BME280;7120;52.890;6.040;2023-01-27T12:07:11;102879.78;;;5.64;76.44
14089;BME280;7120;52.890;6.040;2023-01-27T12:09:40;102886.59;;;5.73;75.88
14089;BME280;7120;52.890;6.040;2023-01-27T12:14:56;102872.66;;;5.63;74.56
14089;BME280;7120;52.890;6.040;2023-01-27T12:17:42;102875.28;;;5.76;74.81
14089;BME280;7120;52.890;6.040;2023-01-27T12:20:43;102877.97;;;5.83;74.64
14089;BME280;7120;52.890;6.040;2023-01-27T12:23:19;102877.91;;;5.90;74.76
14089;BME280;7120;52.890;6.040;2023-01-27T12:25:50;102875.22;;;5.58;74.57
14089;BME280;7120;52.890;6.040;2023-01-27T12:31:21;102873.06;;;5.67;75.17
14089;BME280;7120;52.890;6.040;2023-01-27T12:33:58;102875.19;;;5.90;74.26
14089;BME280;7120;52.890;6.040;2023-01-27T12:36:25;102875.69;;;5.80;73.50
14089;BME280;7120;52.890;6.040;2023-01-27T12:38:53;102869.16;;;5.88;73.56
14089;BME280;7120;52.890;6.040;2023-01-27T12:41:23;102868.88;;;6.02;74.34
14089;BME280;7120;52.890;6.040;2023-01-27T12:43:57;102861.44;;;5.85;73.79
14089;BME280;7120;52.890;6.040;2023-01-27T12:46:27;102852.03;;;5.56;75.25
14089;BME280;7120;52.890;6.040;2023-01-27T12:49:00;102859.66;;;5.40;76.62
14089;BME280;7120;52.890;6.040;2023-01-27T12:54:20;102871.53;;;5.46;76.09
14089;BME280;7120;52.890;6.040;2023-01-27T12:56:50;102860.72;;;5.39;76.17
14089;BME280;7120;52.890;6.040;2023-01-27T12:59:17;102854.13;;;5.22;76.96
14089;BME280;7120;52.890;6.040;2023-01-27T13:02:02;102864.28;;;5.33;77.11
14089;BME280;7120;52.890;6.040;2023-01-27T13:04:41;102870.84;;;5.12;76.73
14089;BME280;7120;52.890;6.040;2023-01-27T13:07:12;102861.88;;;5.18;76.05
14089;BME280;7120;52.890;6.040;2023-01-27T13:10:02;102850.09;;;5.38;75.05
14089;BME280;7120;52.890;6.040;2023-01-27T13:12:31;102860.44;;;5.47;74.21
14089;BME280;7120;52.890;6.040;2023-01-27T13:17:38;102855.88;;;5.41;75.43
14089;BME280;7120;52.890;6.040;2023-01-27T13:20:18;102856.06;;;5.46;75.48
14089;BME280;7120;52.890;6.040;2023-01-27T13:23:00;102854.75;;;5.56;75.52
14089;BME280;7120;52.890;6.040;2023-01-27T13:28:06;102838.72;;;5.16;75.37
14089;BME280;7120;52.890;6.040;2023-01-27T13:30:37;102873.25;;;5.34;75.70
14089;BME280;7120;52.890;6.040;2023-01-27T13:36:11;102871.47;;;5.14;77.47
14089;BME280;7120;52.890;6.040;2023-01-27T13:38:43;102870.44;;;5.15;77.09
14089;BME280;7120;52.890;6.040;2023-01-27T13:41:20;102873.97;;;5.22;78.03
14089;BME280;7120;52.890;6.040;2023-01-27T13:44:23;102870.09;;;4.99;77.31
14089;BME280;7120;52.890;6.040;2023-01-27T13:46:53;102859.97;;;4.67;77.96
14089;BME280;7120;52.890;6.040;2023-01-27T13:49:31;102877.44;;;4.78;78.18
14089;BME280;7120;52.890;6.040;2023-01-27T13:51:57;102865.50;;;4.92;77.68
14089;BME280;7120;52.890;6.040;2023-01-27T13:54:22;102867.31;;;5.12;76.61
14089;BME280;7120;52.890;6.040;2023-01-27T14:00:08;102872.19;;;4.96;76.32
14089;BME280;7120;52.890;6.040;2023-01-27T14:02:46;102873.47;;;4.94;76.92
14089;BME280;7120;52.890;6.040;2023-01-27T14:05:28;102882.81;;;4.98;75.88
14089;BME280;7120;52.890;6.040;2023-01-27T14:11:08;102872.75;;;5.05;76.52
14089;BME280;7120;52.890;6.040;2023-01-27T14:16:16;102874.47;;;4.93;77.60
14089;BME280;7120;52.890;6.040;2023-01-27T14:18:48;102876.31;;;5.06;76.44
14089;BME280;7120;52.890;6.040;2023-01-27T14:21:42;102870.53;;;4.95;76.47
14089;BME280;7120;52.890;6.040;2023-01-27T14:27:17;102868.94;;;4.75;77.35
14089;BME280;7120;52.890;6.040;2023-01-27T14:32:45;102870.31;;;4.97;78.05
14089;BME280;7120;52.890;6.040;2023-01-27T14:41:19;102877.69;;;4.70;78.98
14089;BME280;7120;52.890;6.040;2023-01-27T14:46:46;102879.41;;;4.51;79.99
14089;BME280;7120;52.890;6.040;2023-01-27T14:52:13;102864.81;;;4.46;80.03
14089;BME280;7120;52.890;6.040;2023-01-27T14:55:47;102884.97;;;4.76;79.26
14089;BME280;7120;52.890;6.040;2023-01-27T15:00:38;102884.75;;;4.78;78.60
14089;BME280;7120;52.890;6.040;2023-01-27T15:07:11;102887.28;;;4.73;78.16
14089;BME280;7120;52.890;6.040;2023-01-27T15:09:29;102890.56;;;4.94;78.85